Sparks, Texas
Current Conditions -  °F | °C
As of 12:58 AM on Friday 31 Oct 2014 (Local Time) from KGRK Reporting Station
Broken Clouds Broken Clouds  
Wind Chill: 66°   Ceiling: 6500
Heat Index: 66°   Visibility: 10mi
Dew Point: 57°   Wind: 6mph
Humidity: 73%   Direction: 350°N
Pressure: 30.17"   Gusts: NA
Location:  30.8644°N, 97.3623°W
Report Text: KGRK 310558Z AUTO 35005KT 10SM SCT049 BKN065 BKN090 19/14 A3017 RMK AO2 LTG DSNT SW RAB0538E0548 SLP210 P0000 60000 T01890139 10227 20187 402610150 52018
Loading
Personal Weather Stations






























Interactive Weather Map
Tropical Storm Tracking
New forecast layout! Learn more

10-Day Weather Forecast

Advertisements
Track Severe Weather on mobile